Time;durP1;ratioP1;P1;durP2;ratioP2;P2;SDS_P1;SDS_P2;PMS_P1;PMS_P2;Temp;Humidity;BMP_temperature;BMP_pressure;BME280_temperature;BME280_humidity;BME280_pressure;Samples;Min_cycle;Max_cycle;Signal;HPM_P1;HPM_P2
2021/09/13 00:01:52;;;;;;;13.00;5.82;;;;;;;16.40;62.35;100148.19;5093276;28;20479;-70
2021/09/13 00:04:21;;;;;;;10.68;5.47;;;;;;;16.59;62.11;100134.84;5092688;28;20040;-71
2021/09/13 00:06:50;;;;;;;12.10;6.10;;;;;;;16.60;61.75;100141.97;5093061;28;20047;-70
2021/09/13 00:09:19;;;;;;;9.57;5.25;;;;;;;16.68;61.70;100136.75;5092817;28;20083;-71
2021/09/13 00:11:47;;;;;;;11.07;6.07;;;;;;;16.49;62.59;100136.63;5093108;28;20455;-70
2021/09/13 00:14:17;;;;;;;11.13;6.03;;;;;;;16.46;62.75;100137.75;5092615;28;20044;-70
2021/09/13 00:16:45;;;;;;;12.45;6.25;;;;;;;16.39;63.21;100136.56;5092700;28;20039;-70
2021/09/13 00:19:14;;;;;;;13.90;5.95;;;;;;;16.26;64.09;100141.31;5092723;28;20052;-70
2021/09/13 00:21:42;;;;;;;13.10;5.57;;;;;;;16.26;64.20;100142.16;5092818;28;20398;-70
2021/09/13 00:24:10;;;;;;;12.80;6.20;;;;;;;16.34;63.99;100137.97;5092471;28;20051;-70
2021/09/13 00:26:39;;;;;;;10.48;6.10;;;;;;;16.38;64.10;100142.94;5092888;28;20080;-70
2021/09/13 00:29:07;;;;;;;15.43;6.22;;;;;;;16.40;64.26;100142.81;5092811;28;20475;-70
2021/09/13 00:31:37;;;;;;;9.32;5.32;;;;;;;16.25;64.91;100139.59;5092693;28;20510;-70
2021/09/13 00:34:06;;;;;;;12.15;6.22;;;;;;;16.44;64.21;100145.13;5092870;28;20046;-71
2021/09/13 00:36:35;;;;;;;10.82;6.15;;;;;;;16.47;64.41;100139.44;5092550;28;20491;-70
2021/09/13 00:39:03;;;;;;;13.13;6.72;;;;;;;16.28;65.53;100142.88;5092680;28;20131;-70
2021/09/13 00:41:32;;;;;;;11.93;6.22;;;;;;;16.21;65.78;100140.84;5092308;28;20062;-71
2021/09/13 00:44:00;;;;;;;12.75;6.40;;;;;;;16.22;65.95;100138.03;5092641;28;20101;-71
2021/09/13 00:46:29;;;;;;;10.65;5.95;;;;;;;16.29;65.60;100135.66;5092187;28;20493;-70
2021/09/13 00:48:58;;;;;;;12.70;6.90;;;;;;;16.19;66.14;100145.50;5092495;28;20048;-69
2021/09/13 00:51:27;;;;;;;12.50;6.82;;;;;;;16.19;66.28;100146.34;5092573;28;20048;-70
2021/09/13 00:53:56;;;;;;;11.43;6.47;;;;;;;16.21;66.27;100146.22;5092841;28;20134;-71
2021/09/13 00:56:24;;;;;;;11.38;6.30;;;;;;;16.26;66.05;100147.53;5092209;28;20048;-72
2021/09/13 00:58:54;;;;;;;11.90;6.38;;;;;;;16.29;65.83;100141.03;5092530;28;20044;-71
2021/09/13 01:01:24;;;;;;;11.63;6.20;;;;;;;16.29;65.83;100141.03;5092181;28;20051;-71
2021/09/13 01:03:53;;;;;;;11.07;5.85;;;;;;;16.19;65.90;100146.34;5092530;28;20406;-70
2021/09/13 01:06:22;;;;;;;11.52;5.93;;;;;;;16.29;65.36;100136.50;5092140;28;20102;-72
2021/09/13 01:08:51;;;;;;;11.00;5.90;;;;;;;16.23;65.57;100139.75;5092411;28;20460;-72
2021/09/13 01:11:19;;;;;;;12.70;6.05;;;;;;;16.15;65.90;100144.91;5091953;28;20070;-72
2021/09/13 01:13:48;;;;;;;9.77;5.88;;;;;;;16.16;65.66;100141.25;5092664;28;20068;-73
2021/09/13 01:16:19;;;;;;;10.73;5.95;;;;;;;16.07;66.24;100146.56;5092313;28;20070;-72
2021/09/13 01:18:47;;;;;;;14.25;6.18;;;;;;;15.95;66.94;100138.53;5092464;28;20040;-73
2021/09/13 01:21:16;;;;;;;14.43;6.85;;;;;;;15.84;67.67;100137.75;5092120;28;20048;-73
2021/09/13 01:23:46;;;;;;;12.10;6.30;;;;;;;15.71;68.62;100149.50;5092248;28;20094;-73
2021/09/13 01:26:15;;;;;;;13.70;6.22;;;;;;;15.72;68.64;100145.81;5092116;28;20146;-73
2021/09/13 01:28:43;;;;;;;11.48;6.25;;;;;;;15.78;68.43;100141.78;5095805;28;20048;-71
2021/09/13 01:31:12;;;;;;;14.15;6.28;;;;;;;15.74;68.50;100143.88;5095789;28;20044;-75
2021/09/13 01:33:41;;;;;;;15.40;6.95;;;;;;;15.65;68.91;100141.09;5096098;28;20048;-71
2021/09/13 01:36:09;;;;;;;12.18;6.15;;;;;;;15.77;67.95;100137.38;5095678;28;20382;-71
2021/09/13 01:38:37;;;;;;;12.52;6.35;;;;;;;15.83;67.14;100139.56;5095774;28;20040;-71
2021/09/13 01:41:07;;;;;;;9.77;5.97;;;;;;;15.73;67.33;100138.63;5095928;28;20040;-71
2021/09/13 01:43:36;;;;;;;13.18;6.65;;;;;;;15.71;67.17;100145.94;5095523;28;20134;-71
2021/09/13 01:46:05;;;;;;;10.25;6.10;;;;;;;15.66;67.51;100145.50;5095717;28;20390;-71
2021/09/13 01:48:33;;;;;;;12.27;6.82;;;;;;;15.59;68.78;100146.94;5094118;28;20109;-71
2021/09/13 01:51:01;;;;;;;11.05;6.38;;;;;;;15.45;69.20;100151.63;5095283;28;20062;-71
2021/09/13 01:53:30;;;;;;;15.75;6.78;;;;;;;15.45;69.07;100146.25;5095138;28;20044;-72
2021/09/13 01:55:58;;;;;;;12.25;6.32;;;;;;;15.42;68.93;100145.63;5095537;28;20048;-71
2021/09/13 01:58:27;;;;;;;12.27;6.63;;;;;;;15.39;68.98;100152.13;5095214;28;20043;-72
2021/09/13 02:00:56;;;;;;;13.45;6.20;;;;;;;15.41;69.05;100147.47;5095572;28;20059;-72
2021/09/13 02:03:25;;;;;;;12.80;6.03;;;;;;;15.49;69.01;100140.63;5095074;28;20075;-72
2021/09/13 02:05:53;;;;;;;11.02;6.20;;;;;;;15.82;67.20;100143.22;5095586;28;20143;-71
2021/09/13 02:08:21;;;;;;;11.52;6.35;;;;;;;15.95;66.50;100143.06;5094891;28;20050;-74
2021/09/13 02:10:52;;;;;;;11.50;6.43;;;;;;;15.80;67.38;100139.81;5095031;28;20039;-74
2021/09/13 02:13:21;;;;;;;15.52;6.80;;;;;;;15.69;68.51;100145.22;5095195;28;20383;-75
2021/09/13 02:15:50;;;;;;;10.93;6.03;;;;;;;15.81;67.99;100144.19;5094960;28;20097;-74
2021/09/13 02:18:19;;;;;;;7.82;5.95;;;;;;;15.89;67.92;100151.63;5094859;28;20102;-75
2021/09/13 02:20:47;;;;;;;11.40;6.38;;;;;;;15.91;67.85;100158.59;5095064;28;20044;-77
2021/09/13 02:23:15;;;;;;;10.77;6.18;;;;;;;15.58;69.51;100161.38;5095141;28;20044;-82
2021/09/13 02:25:44;;;;;;;10.38;6.30;;;;;;;15.63;69.35;100156.50;5094894;28;20091;-77
2021/09/13 02:28:12;;;;;;;13.50;6.68;;;;;;;15.65;69.29;100154.56;5094928;28;20052;-77
2021/09/13 02:30:40;;;;;;;10.07;6.43;;;;;;;15.60;69.42;100164.78;5094528;28;20036;-73
2021/09/13 02:33:12;;;;;;;11.95;6.10;;;;;;;15.45;70.04;100151.63;5094841;28;20119;-73
2021/09/13 02:35:40;;;;;;;12.25;6.78;;;;;;;15.45;70.24;100159.69;5094370;28;20044;-73
2021/09/13 02:38:09;;;;;;;11.45;6.55;;;;;;;15.39;70.84;100159.34;5094456;28;20107;-73
2021/09/13 02:40:37;;;;;;;12.95;6.68;;;;;;;15.51;70.17;100160.16;5094188;28;20467;-73
2021/09/13 02:43:05;;;;;;;12.02;6.63;;;;;;;15.40;70.72;100158.34;5094814;28;20084;-74
2021/09/13 02:45:35;;;;;;;12.23;6.47;;;;;;;15.47;70.43;100154.19;5094386;28;20399;-74
2021/09/13 02:48:04;;;;;;;12.65;6.75;;;;;;;15.61;69.94;100159.31;5094605;28;20440;-73
2021/09/13 02:50:34;;;;;;;12.98;6.50;;;;;;;15.50;70.38;100158.47;5093828;28;20048;-73
2021/09/13 02:53:03;;;;;;;9.35;6.05;;;;;;;15.36;70.97;100155.06;5094300;28;20098;-72
2021/09/13 02:55:31;;;;;;;14.70;7.20;;;;;;;15.28;71.54;100152.16;5093893;28;20085;-72
2021/09/13 02:57:59;;;;;;;10.70;6.82;;;;;;;15.26;71.51;100151.44;5094190;28;20509;-72
2021/09/13 03:00:28;;;;;;;10.05;6.82;;;;;;;15.19;72.20;100152.91;5094052;28;20044;-72
2021/09/13 03:02:56;;;;;;;13.20;6.95;;;;;;;15.18;72.45;100151.19;5094229;28;20043;-72
2021/09/13 03:05:25;;;;;;;10.23;6.53;;;;;;;15.11;72.64;100153.50;5093779;28;20048;-74
2021/09/13 03:07:54;;;;;;;10.88;7.07;;;;;;;15.14;72.45;100157.78;5093982;28;20055;-73
2021/09/13 03:10:23;;;;;;;11.15;6.45;;;;;;;15.31;71.61;100159.97;5093711;28;20407;-73
2021/09/13 03:12:51;;;;;;;11.35;7.22;;;;;;;15.30;71.62;100155.56;5093950;28;20058;-73
2021/09/13 03:15:21;;;;;;;11.75;6.57;;;;;;;15.33;71.60;100158.00;5093705;28;20421;-75
2021/09/13 03:17:50;;;;;;;11.75;6.90;;;;;;;15.26;71.85;100159.50;5094103;28;20040;-76
2021/09/13 03:20:18;;;;;;;12.90;6.90;;;;;;;15.16;72.33;100161.22;5093563;28;20518;-77
2021/09/13 03:22:47;;;;;;;11.15;6.60;;;;;;;15.06;72.81;100154.88;5094083;28;20478;-78
2021/09/13 03:25:16;;;;;;;11.15;6.78;;;;;;;15.14;72.46;100157.78;5093362;28;20044;-78
2021/09/13 03:27:44;;;;;;;12.43;6.65;;;;;;;15.33;71.53;100157.13;5075836;28;20058;-78
2021/09/13 03:30:13;;;;;;;11.30;6.70;;;;;;;15.32;71.97;100156.28;5093686;28;20425;-74
2021/09/13 03:32:42;;;;;;;14.27;7.07;;;;;;;15.31;71.82;100168.03;5093222;28;20454;-74
2021/09/13 03:35:11;;;;;;;11.13;6.72;;;;;;;15.45;71.17;100169.59;5093443;28;20051;-74
2021/09/13 03:37:39;;;;;;;11.48;6.95;;;;;;;15.38;71.26;100158.50;5093179;28;20576;-75
2021/09/13 03:40:08;;;;;;;10.40;6.85;;;;;;;15.44;70.99;100171.44;5093464;28;20097;-74
2021/09/13 03:42:38;;;;;;;9.20;6.40;;;;;;;15.44;71.21;100166.06;5093119;28;20036;-75
2021/09/13 03:45:07;;;;;;;10.20;6.60;;;;;;;15.28;71.81;100165.59;5093650;28;20471;-74
2021/09/13 03:47:35;;;;;;;10.90;7.03;;;;;;;15.38;71.90;100165.69;5093198;28;20048;-74
2021/09/13 03:50:04;;;;;;;11.57;6.70;;;;;;;15.40;71.45;100163.72;5092876;28;20097;-74
2021/09/13 03:52:33;;;;;;;11.80;6.63;;;;;;;15.27;72.28;100163.88;5092695;28;20044;-74
2021/09/13 03:55:01;;;;;;;11.32;6.88;;;;;;;15.25;72.65;100164.97;5093421;28;20066;-74
2021/09/13 03:57:30;;;;;;;11.55;6.75;;;;;;;15.06;73.50;100163.78;5092817;28;20047;-74
2021/09/13 03:59:59;;;;;;;10.75;6.78;;;;;;;15.04;73.50;100167.56;5092937;28;20067;-74
2021/09/13 04:02:28;;;;;;;12.85;7.40;;;;;;;14.86;74.59;100170.75;5092787;28;20395;-74
2021/09/13 04:04:56;;;;;;;14.65;7.30;;;;;;;14.86;74.58;100162.69;5093203;28;20398;-74
2021/09/13 04:07:27;;;;;;;13.85;6.82;;;;;;;14.99;74.24;100164.41;5092716;28;20040;-71
2021/09/13 04:10:11;;;;;;;11.05;6.72;;;;;;;14.89;74.76;100170.50;5093080;28;20051;-71
2021/09/13 04:12:39;;;;;;;15.90;7.13;;;;;;;14.99;74.49;100169.75;5092474;28;20483;-72
2021/09/13 04:15:10;;;;;;;10.65;6.28;;;;;;;14.87;75.39;100175.13;5092978;28;20048;-73
2021/09/13 04:17:38;;;;;;;11.32;6.88;;;;;;;14.97;74.97;100172.56;5092790;28;20040;-73
2021/09/13 04:20:08;;;;;;;13.45;6.90;;;;;;;14.95;75.28;100173.66;5092942;28;20517;-72
2021/09/13 04:22:36;;;;;;;13.95;7.40;;;;;;;14.97;75.07;100172.56;5092421;28;20098;-72
2021/09/13 04:25:05;;;;;;;10.85;6.70;;;;;;;14.96;75.07;100178.03;5092557;28;20044;-74
2021/09/13 04:27:34;;;;;;;11.75;6.68;;;;;;;14.99;74.86;100176.00;5092474;28;20055;-73
2021/09/13 04:30:02;;;;;;;11.88;6.32;;;;;;;15.00;74.68;100176.84;5092778;28;20036;-72
2021/09/13 04:32:32;;;;;;;12.18;6.65;;;;;;;15.03;74.45;100181.97;5092134;28;20483;-73
2021/09/13 04:35:00;;;;;;;12.27;6.82;;;;;;;14.65;76.39;100183.16;5092671;28;20406;-71
2021/09/13 04:37:29;;;;;;;15.13;7.07;;;;;;;14.85;75.76;100178.91;5092266;28;20102;-72
2021/09/13 04:39:57;;;;;;;13.95;7.20;;;;;;;14.74;76.17;100178.91;5092651;28;20032;-73
2021/09/13 04:42:25;;;;;;;12.55;6.80;;;;;;;14.87;75.65;100179.66;5092250;28;20070;-74
2021/09/13 04:44:53;;;;;;;11.27;7.45;;;;;;;15.05;74.89;100185.38;5092781;28;20055;-73
2021/09/13 04:47:22;;;;;;;13.98;7.55;;;;;;;15.14;74.53;100179.25;5092354;28;20052;-73
2021/09/13 04:49:51;;;;;;;11.25;7.30;;;;;;;15.10;74.71;100178.66;5092453;28;20050;-76
2021/09/13 04:52:20;;;;;;;11.93;6.82;;;;;;;15.20;74.58;100181.47;5092243;28;20102;-76
2021/09/13 04:54:48;;;;;;;14.48;6.93;;;;;;;15.25;74.33;100176.59;5092271;28;20040;-75
2021/09/13 04:57:16;;;;;;;11.05;7.22;;;;;;;15.13;75.09;100175.72;5092435;28;20048;-74
2021/09/13 04:59:45;;;;;;;10.98;7.18;;;;;;;15.24;74.78;100179.38;5091966;28;20098;-71
2021/09/13 05:02:13;;;;;;;12.73;7.10;;;;;;;15.28;74.74;100179.03;5093339;28;20528;-71
2021/09/13 05:04:42;;;;;;;14.30;8.27;;;;;;;15.12;75.63;100174.03;5095726;28;20050;-75
2021/09/13 05:07:12;;;;;;;13.98;7.50;;;;;;;15.33;74.87;100184.00;5096004;28;20044;-74
2021/09/13 05:09:40;;;;;;;15.05;7.50;;;;;;;15.36;74.89;100184.63;5095589;28;20083;-74
2021/09/13 05:12:08;;;;;;;17.45;7.53;;;;;;;15.44;74.77;100184.88;5095919;28;20055;-77
2021/09/13 05:14:37;;;;;;;13.30;7.85;;;;;;;15.65;73.73;100179.59;5095841;28;20039;-74
2021/09/13 05:17:05;;;;;;;13.77;7.38;;;;;;;15.57;73.91;100184.72;5096134;28;20482;-74
2021/09/13 05:19:36;;;;;;;16.95;7.82;;;;;;;15.68;73.86;100194.63;5095805;28;20055;-72
2021/09/13 05:22:04;;;;;;;15.23;7.30;;;;;;;15.89;72.85;100200.06;5096033;28;20144;-71
2021/09/13 05:24:35;;;;;;;14.07;7.53;;;;;;;16.16;71.87;100194.22;5095920;28;20383;-71
2021/09/13 05:27:03;;;;;;;12.77;6.95;;;;;;;16.26;71.60;100197.81;5095355;28;20051;-71
2021/09/13 05:29:32;;;;;;;14.55;7.47;;;;;;;16.27;71.77;100204.91;5095546;28;20048;-70
2021/09/13 05:32:00;;;;;;;13.48;7.43;;;;;;;16.44;71.21;100201.66;5095252;28;20076;-71
2021/09/13 05:34:28;;;;;;;13.32;7.53;;;;;;;16.59;70.61;100191.38;5095226;28;20044;-71
2021/09/13 05:36:56;;;;;;;12.63;7.28;;;;;;;16.47;71.06;100197.84;5095200;28;20048;-72
2021/09/13 05:39:25;;;;;;;21.60;7.78;;;;;;;16.59;70.85;100204.84;5095268;28;20044;-73
2021/09/13 05:41:54;;;;;;;16.98;7.65;;;;;;;16.83;69.67;100200.09;5094612;28;20492;-72
2021/09/13 05:44:22;;;;;;;16.58;7.72;;;;;;;16.83;69.55;100193.84;5094802;28;20052;-71
2021/09/13 05:46:52;;;;;;;11.90;7.68;;;;;;;16.92;69.30;100193.03;5094204;28;20100;-71
2021/09/13 05:49:20;;;;;;;12.45;6.85;;;;;;;17.20;67.66;100196.00;5093828;28;20048;-71
2021/09/13 05:51:51;;;;;;;13.35;7.15;;;;;;;17.26;68.08;100190.06;5094528;28;20048;-71
2021/09/13 05:54:22;;;;;;;10.98;7.38;;;;;;;17.32;67.71;100194.91;5093728;28;20044;-74
2021/09/13 05:56:52;;;;;;;11.32;6.60;;;;;;;17.65;66.22;100202.66;5094368;28;20054;-73
2021/09/13 05:59:22;;;;;;;13.20;6.60;;;;;;;17.93;64.74;100197.47;5094883;28;20557;-74
2021/09/13 06:01:52;;;;;;;14.57;6.85;;;;;;;17.92;64.54;100198.47;5094962;28;20134;-74
2021/09/13 06:04:20;;;;;;;14.95;6.90;;;;;;;17.87;65.13;100198.06;5095194;28;20048;-74
2021/09/13 06:06:48;;;;;;;15.20;7.18;;;;;;;17.95;65.19;100182.88;5077009;28;20060;-74
2021/09/13 06:09:17;;;;;;;12.07;7.10;;;;;;;18.07;64.29;100180.88;5112264;28;20050;-72
2021/09/13 06:11:45;;;;;;;14.23;7.03;;;;;;;18.13;63.79;100180.28;5115753;28;20047;-72
2021/09/13 06:14:13;;;;;;;15.50;7.38;;;;;;;18.42;63.04;100180.28;5114788;28;20104;-72
2021/09/13 06:16:45;;;;;;;17.20;7.05;;;;;;;18.52;62.43;100185.66;5115559;28;20039;-72
2021/09/13 06:19:14;;;;;;;17.70;7.97;;;;;;;18.81;61.41;100180.22;5115493;28;20039;-72
2021/09/13 06:21:42;;;;;;;11.80;6.43;;;;;;;18.79;61.92;100184.94;5115412;28;20043;-71
2021/09/13 06:24:10;;;;;;;15.57;7.18;;;;;;;18.88;61.97;100184.91;5115530;28;20093;-70
2021/09/13 06:26:39;;;;;;;12.85;6.50;;;;;;;19.20;60.45;100180.91;5115411;28;20051;-70
2021/09/13 06:29:07;;;;;;;11.63;6.65;;;;;;;19.25;60.26;100188.59;5114934;28;20066;-68
2021/09/13 06:31:35;;;;;;;15.95;6.35;;;;;;;19.25;60.17;100189.44;5114944;28;20122;-70
2021/09/13 06:34:05;;;;;;;14.00;6.55;;;;;;;19.44;59.85;100194.78;5114765;28;20058;-69
2021/09/13 06:36:33;;;;;;;10.63;6.00;;;;;;;19.76;58.68;100198.88;5115058;28;20051;-69
2021/09/13 06:39:02;;;;;;;8.10;5.72;;;;;;;19.85;58.89;100197.09;5115376;28;20044;-69
2021/09/13 06:41:30;;;;;;;11.13;6.50;;;;;;;20.14;57.65;100191.47;5115011;28;20382;-69
2021/09/13 06:43:59;;;;;;;11.05;5.97;;;;;;;20.40;56.66;100191.53;5096426;28;20052;-69
2021/09/13 06:46:34;;;;;;;10.30;5.70;;;;;;;20.64;55.67;100199.03;5114467;28;20040;-70
2021/09/13 06:49:02;;;;;;;10.98;5.93;;;;;;;20.71;55.55;100194.69;5114366;28;20409;-70
2021/09/13 06:51:32;;;;;;;16.30;5.93;;;;;;;21.00;54.21;100197.91;5114432;28;20043;-70
2021/09/13 06:54:05;;;;;;;10.38;5.88;;;;;;;21.01;54.61;100191.47;5114080;28;20502;-69
2021/09/13 06:56:34;;;;;;;13.80;6.05;;;;;;;20.84;54.95;100195.09;5114392;28;20050;-68
2021/09/13 06:59:02;;;;;;;10.85;5.97;;;;;;;20.86;55.59;100195.81;5114095;28;20066;-69
2021/09/13 07:01:32;;;;;;;10.13;6.38;;;;;;;20.62;56.57;100195.63;5114408;28;20051;-68
2021/09/13 07:04:02;;;;;;;12.77;5.88;;;;;;;20.71;56.63;100200.09;5114662;28;20126;-69
2021/09/13 07:06:32;;;;;;;14.55;6.47;;;;;;;20.80;56.02;100196.44;5114444;28;20116;-71
2021/09/13 07:09:00;;;;;;;9.43;5.88;;;;;;;20.99;56.06;100193.50;5114049;28;20200;-70
2021/09/13 07:11:29;;;;;;;13.32;5.75;;;;;;;20.96;56.68;100199.25;5114052;28;20040;-71
2021/09/13 07:13:57;;;;;;;11.35;6.03;;;;;;;21.05;56.01;100198.31;5113319;28;20051;-70
2021/09/13 07:16:25;;;;;;;9.65;6.45;;;;;;;21.10;55.90;100206.78;5113925;28;20067;-70
2021/09/13 07:18:54;;;;;;;10.10;6.10;;;;;;;21.05;55.97;100203.72;5112854;28;20151;-70
2021/09/13 07:21:22;;;;;;;10.82;6.05;;;;;;;21.05;55.90;100206.44;5113273;28;20069;-70
2021/09/13 07:23:52;;;;;;;9.70;5.95;;;;;;;21.24;56.08;100215.34;5094029;28;20559;-71
2021/09/13 07:26:20;;;;;;;10.35;5.95;;;;;;;21.25;55.69;100214.34;5112889;28;20055;-70
2021/09/13 07:28:49;;;;;;;11.10;6.10;;;;;;;21.52;55.03;100210.56;5113434;28;20117;-71
2021/09/13 07:31:18;;;;;;;12.13;6.00;;;;;;;21.55;55.07;100219.25;5113485;28;20069;-70
2021/09/13 07:33:46;;;;;;;12.13;5.90;;;;;;;21.55;55.36;100207.53;5113541;28;20074;-70
2021/09/13 07:36:14;;;;;;;14.23;6.50;;;;;;;21.58;55.49;100218.91;5113541;28;20100;-70
2021/09/13 07:38:42;;;;;;;9.55;5.90;;;;;;;21.62;55.25;100222.16;5113794;28;20449;-70
2021/09/13 07:41:12;;;;;;;11.88;6.20;;;;;;;21.54;55.80;100219.41;5113217;28;20398;-70
2021/09/13 07:43:41;;;;;;;10.43;6.28;;;;;;;21.85;55.03;100225.13;5113874;28;20044;-71
2021/09/13 07:46:09;;;;;;;11.75;6.70;;;;;;;21.74;55.53;100226.28;5113494;28;20046;-71
2021/09/13 07:48:37;;;;;;;10.27;6.38;;;;;;;21.88;55.42;100222.91;5113517;28;20051;-69
2021/09/13 07:51:06;;;;;;;12.70;6.30;;;;;;;22.05;55.25;100229.25;5113205;28;20043;-69
2021/09/13 07:53:34;;;;;;;11.75;6.50;;;;;;;22.05;54.85;100231.09;5113319;28;20382;-71
2021/09/13 07:56:05;;;;;;;17.10;6.53;;;;;;;21.94;55.62;100224.13;5113350;28;20039;-69
2021/09/13 07:58:34;;;;;;;11.88;7.10;;;;;;;22.05;55.87;100228.38;5113637;28;20135;-69
2021/09/13 08:01:02;;;;;;;9.48;6.40;;;;;;;22.16;55.59;100231.66;5113013;28;20051;-70
2021/09/13 08:03:31;;;;;;;11.50;6.10;;;;;;;22.23;55.62;100232.69;5113263;28;20122;-69
2021/09/13 08:06:00;;;;;;;12.05;7.05;;;;;;;22.24;55.95;100233.53;5113020;28;20051;-70
2021/09/13 08:08:28;;;;;;;11.65;6.63;;;;;;;22.38;55.62;100229.28;5113407;28;20100;-69
2021/09/13 08:10:56;;;;;;;10.23;6.18;;;;;;;22.54;54.75;100219.28;5094840;28;20059;-69
2021/09/13 08:13:26;;;;;;;12.45;6.15;;;;;;;22.53;55.62;100224.91;5112944;28;20123;-69
2021/09/13 08:15:56;;;;;;;11.20;6.43;;;;;;;22.66;54.59;100230.66;5112919;28;20568;-70
2021/09/13 08:18:24;;;;;;;12.07;6.72;;;;;;;22.83;54.19;100228.78;5112980;28;20047;-70
2021/09/13 08:20:52;;;;;;;10.85;6.07;;;;;;;22.78;54.28;100226.59;5112911;28;20035;-70
2021/09/13 08:23:21;;;;;;;7.82;5.78;;;;;;;22.80;54.68;100223.69;5113170;28;20039;-69
2021/09/13 08:25:49;;;;;;;9.13;5.90;;;;;;;22.98;54.70;100226.25;5112977;28;20058;-69
2021/09/13 08:28:20;;;;;;;8.02;5.53;;;;;;;23.22;53.80;100225.34;5112761;28;20063;-69
2021/09/13 08:30:48;;;;;;;10.65;5.80;;;;;;;23.29;53.16;100229.91;5113133;28;20040;-71
2021/09/13 08:33:18;;;;;;;7.88;5.55;;;;;;;23.19;53.47;100223.81;5112741;28;20421;-69
2021/09/13 08:35:47;;;;;;;10.02;5.45;;;;;;;23.32;53.01;100229.56;5113106;28;20044;-69
2021/09/13 08:38:16;;;;;;;8.50;5.53;;;;;;;23.25;53.38;100227.69;5116513;28;20482;-69
2021/09/13 08:40:44;;;;;;;9.95;5.60;;;;;;;23.65;52.27;100224.03;5116354;28;20035;-69
2021/09/13 08:43:12;;;;;;;7.82;5.30;;;;;;;23.77;51.76;100227.19;5116283;28;20047;-70
2021/09/13 08:45:44;;;;;;;7.65;5.25;;;;;;;23.79;51.38;100223.25;5115867;28;20054;-70
2021/09/13 08:48:17;;;;;;;10.13;5.55;;;;;;;23.65;51.55;100224.88;5116199;27;20043;-71
2021/09/13 08:51:17;;;;;;;8.55;5.60;;;;;;;23.61;51.74;100222.66;5115717;28;20452;-69
2021/09/13 08:53:49;;;;;;;7.88;5.32;;;;;;;23.64;51.99;100227.75;5115566;28;20039;-69
2021/09/13 08:56:18;;;;;;;8.77;5.40;;;;;;;23.96;51.34;100232.19;5116152;28;20040;-69
2021/09/13 08:58:47;;;;;;;9.27;5.20;;;;;;;24.11;50.57;100235.00;5115362;28;20055;-69
2021/09/13 09:01:16;;;;;;;10.90;5.57;;;;;;;24.14;50.25;100231.94;5116198;28;20039;-70
2021/09/13 09:03:45;;;;;;;7.72;5.05;;;;;;;24.37;50.17;100230.06;5116715;28;20502;-69
2021/09/13 09:06:30;;;;;;;6.63;5.00;;;;;;;24.28;49.39;100231.97;5116636;28;20075;-70
2021/09/13 09:09:04;;;;;;;7.90;4.93;;;;;;;24.28;49.10;100225.69;5116324;28;20066;-70
2021/09/13 09:11:59;;;;;;;6.57;4.97;;;;;;;24.52;48.11;100220.09;5116976;28;20074;-69
2021/09/13 09:14:33;;;;;;;8.02;4.63;;;;;;;24.50;48.54;100218.56;5098844;28;20059;-69
2021/09/13 09:17:04;;;;;;;6.43;5.22;;;;;;;24.59;48.59;100217.44;5116787;28;20402;-69
2021/09/13 09:19:32;;;;;;;7.10;5.40;;;;;;;24.90;47.89;100224.66;5116593;28;20093;-69
2021/09/13 09:22:20;;;;;;;9.20;4.43;;;;;;;24.76;47.53;100220.88;5116298;28;20130;-70
2021/09/13 09:24:50;;;;;;;6.90;4.32;;;;;;;24.93;46.34;100225.16;5116509;28;20071;-69
2021/09/13 09:27:18;;;;;;;5.00;4.18;;;;;;;24.84;46.59;100226.28;5116181;28;20051;-69
2021/09/13 09:29:47;;;;;;;5.57;4.07;;;;;;;24.83;46.19;100222.69;5116475;28;20067;-70
2021/09/13 09:32:23;;;;;;;6.38;4.20;;;;;;;24.93;46.15;100227.03;5115930;28;20444;-69
2021/09/13 09:34:52;;;;;;;6.68;4.18;;;;;;;24.78;46.38;100221.53;5116257;28;20093;-69
2021/09/13 09:37:24;;;;;;;8.23;4.47;;;;;;;24.91;45.81;100229.13;5116246;28;20047;-69
2021/09/13 09:39:58;;;;;;;7.85;4.35;;;;;;;24.99;45.35;100216.22;5115957;28;20051;-70
2021/09/13 09:42:32;;;;;;;6.55;4.22;;;;;;;25.02;44.63;100212.31;5116367;28;20119;-71
2021/09/13 09:45:01;;;;;;;7.93;4.30;;;;;;;25.07;45.36;100210.69;5115897;28;20047;-70
2021/09/13 09:47:32;;;;;;;8.68;4.13;;;;;;;25.33;45.42;100209.41;5115031;28;20048;-70
2021/09/13 09:50:02;;;;;;;6.80;4.13;;;;;;;25.37;44.75;100213.44;5115616;28;20039;-70
2021/09/13 09:52:34;;;;;;;6.20;4.28;;;;;;;25.44;43.56;100208.91;5115910;28;20051;-70
2021/09/13 09:55:10;;;;;;;5.80;4.23;;;;;;;25.43;44.15;100209.97;5115800;28;20044;-70
2021/09/13 09:57:39;;;;;;;5.88;4.60;;;;;;;25.30;44.45;100215.25;5115979;28;20071;-70
2021/09/13 10:00:25;;;;;;;7.57;4.40;;;;;;;25.21;44.70;100205.47;5097239;28;20138;-70
2021/09/13 10:02:55;;;;;;;7.45;3.83;;;;;;;25.36;44.22;100198.94;5115462;28;20051;-70
2021/09/13 10:05:24;;;;;;;6.45;4.43;;;;;;;25.52;43.68;100202.50;5115385;28;20122;-70
2021/09/13 10:07:54;;;;;;;6.20;4.18;;;;;;;25.60;44.12;100203.25;5115428;28;20093;-70
2021/09/13 10:10:28;;;;;;;5.90;4.22;;;;;;;25.86;43.68;100199.16;5115141;28;20490;-69
2021/09/13 10:12:58;;;;;;;6.30;4.10;;;;;;;25.89;42.73;100199.66;5115037;28;20051;-69
2021/09/13 10:15:27;;;;;;;6.80;4.32;;;;;;;25.93;42.41;100195.47;5115322;28;20398;-69
2021/09/13 10:18:02;;;;;;;7.13;4.65;;;;;;;25.92;42.83;100201.13;5114499;28;20043;-70
2021/09/13 10:20:30;;;;;;;6.38;4.43;;;;;;;25.96;42.58;100195.09;5113952;28;20047;-71
2021/09/13 10:23:02;;;;;;;9.27;4.10;;;;;;;26.06;42.92;100188.47;5113607;28;20397;-71
2021/09/13 10:25:32;;;;;;;6.20;3.75;;;;;;;26.27;42.18;100191.22;5114262;28;20375;-70
2021/09/13 10:28:06;;;;;;;7.55;4.00;;;;;;;26.14;42.25;100191.06;5113967;28;20043;-70
2021/09/13 10:30:49;;;;;;;5.95;4.22;;;;;;;26.12;41.89;100190.41;5114224;28;20088;-70
2021/09/13 10:33:29;;;;;;;6.07;4.07;;;;;;;26.13;41.71;100192.09;5114392;28;20042;-70
2021/09/13 10:36:01;;;;;;;6.60;4.22;;;;;;;26.15;41.72;100199.09;5113881;28;20044;-70
2021/09/13 10:38:45;;;;;;;6.72;4.32;;;;;;;26.14;41.78;100186.44;5114685;28;20363;-70
2021/09/13 10:41:51;;;;;;;7.65;4.50;;;;;;;26.29;41.15;100185.53;5114095;28;20040;-70
2021/09/13 10:44:30;;;;;;;5.72;4.35;;;;;;;26.41;41.59;100187.59;5113366;28;20477;-69
2021/09/13 10:47:02;;;;;;;6.47;4.25;;;;;;;26.62;41.10;100183.13;5114198;28;20104;-70
2021/09/13 10:49:32;;;;;;;6.07;4.07;;;;;;;26.84;40.53;100181.22;5114302;28;20051;-69
2021/09/13 10:52:33;;;;;;;5.35;3.60;;;;;;;26.79;40.72;100181.78;5114462;28;20124;-70
2021/09/13 10:55:21;;;;;;;7.25;4.00;;;;;;;26.72;40.29;100184.47;5107945;28;20109;-70
2021/09/13 10:57:57;;;;;;;5.75;3.83;;;;;;;26.70;40.87;100181.09;5114598;28;20043;-70
2021/09/13 11:00:59;;;;;;;7.88;3.92;;;;;;;26.90;40.77;100185.88;5114316;28;20040;-69
2021/09/13 11:03:47;;;;;;;6.68;4.15;;;;;;;26.88;40.08;100179.75;5096402;28;20086;-70
2021/09/13 11:06:45;;;;;;;6.82;3.83;;;;;;;26.92;39.73;100168.19;5114249;28;20044;-70
2021/09/13 11:09:21;;;;;;;5.35;3.53;;;;;;;27.14;39.78;100174.50;5114230;28;20039;-70
2021/09/13 11:11:59;;;;;;;7.53;3.17;;;;;;;27.16;38.74;100166.91;5114507;28;20096;-70
2021/09/13 11:14:32;;;;;;;5.95;3.30;;;;;;;27.50;38.05;100159.69;5114412;28;20047;-69
2021/09/13 11:17:03;;;;;;;5.57;3.63;;;;;;;27.62;38.41;100163.56;5113958;28;20046;-78
2021/09/13 11:19:32;;;;;;;9.07;3.90;;;;;;;27.64;37.90;100165.03;5113920;28;20089;-70
2021/09/13 11:22:03;;;;;;;5.50;3.60;;;;;;;27.61;37.44;100167.34;5114032;28;20044;-69
2021/09/13 11:24:34;;;;;;;6.55;3.53;;;;;;;27.50;37.84;100159.69;5113817;28;20406;-70
2021/09/13 11:27:04;;;;;;;7.15;3.50;;;;;;;27.38;37.78;100162.16;5113510;28;20051;-71
2021/09/13 11:29:34;;;;;;;6.00;3.55;;;;;;;27.31;37.89;100162.16;5095752;28;20071;-70
2021/09/13 11:32:05;;;;;;;6.47;4.18;;;;;;;27.26;38.37;100156.44;5112075;28;20121;-71
2021/09/13 11:34:39;;;;;;;5.00;3.60;;;;;;;27.17;38.66;100160.38;5113568;28;20127;-70